Time;durP1;ratioP1;P1;durP2;ratioP2;P2;SDS_P1;SDS_P2;PMS_P1;PMS_P2;Temp;Humidity;BMP_temperature;BMP_pressure;BME280_temperature;BME280_humidity;BME280_pressure;Samples;Min_cycle;Max_cycle;Signal;HPM_P1;HPM_P2
2021/11/15 00:00:59;;;;;;;;;;;18.60;74.30;;;;;;5094222;28;19919;-66
2021/11/15 00:03:27;;;;;;;;;;;18.60;75.00;;;;;;5094218;28;19915;-66
2021/11/15 00:05:53;;;;;;;;;;;18.80;75.00;;;;;;5093779;28;19912;-66
2021/11/15 00:08:20;;;;;;;;;;;18.90;74.50;;;;;;5093899;28;19917;-67
2021/11/15 00:10:47;;;;;;;;;;;18.90;74.10;;;;;;5093970;28;19915;-66
2021/11/15 00:13:13;;;;;;;;;;;18.90;75.50;;;;;;5093791;28;19908;-67
2021/11/15 00:15:40;;;;;;;;;;;19.10;74.90;;;;;;5093987;28;19908;-65
2021/11/15 00:18:07;;;;;;;;;;;19.20;72.90;;;;;;5093514;28;19961;-66
2021/11/15 00:20:37;;;;;;;;;;;19.20;72.60;;;;;;5093525;28;19908;-65
2021/11/15 00:23:05;;;;;;;;;;;19.40;72.60;;;;;;5093802;28;19908;-65
2021/11/15 00:25:32;;;;;;;;;;;19.70;72.70;;;;;;5090529;28;20079;-66
2021/11/15 00:27:59;;;;;;;;;;;19.80;71.40;;;;;;5091088;28;19924;-65
2021/11/15 00:30:26;;;;;;;;;;;19.80;71.60;;;;;;5092945;28;19954;-66
2021/11/15 00:32:53;;;;;;;;;;;19.90;70.90;;;;;;5092361;28;19908;-66
2021/11/15 00:35:20;;;;;;;;;;;20.10;71.40;;;;;;5093321;28;19970;-66
2021/11/15 00:37:46;;;;;;;;;;;20.40;72.50;;;;;;5091721;28;19908;-66
2021/11/15 00:40:14;;;;;;;;;;;21.10;70.70;;;;;;5093169;28;19998;-69
2021/11/15 00:42:41;;;;;;;;;;;21.00;70.00;;;;;;5088550;28;20410;-65
2021/11/15 00:45:09;;;;;;;;;;;21.00;70.90;;;;;;5091178;28;20700;-65
2021/11/15 00:47:36;;;;;;;;;;;21.40;70.40;;;;;;5092833;28;19938;-70
2021/11/15 00:50:07;;;;;;;;;;;21.70;70.30;;;;;;5092909;28;19908;-69
2021/11/15 00:52:34;;;;;;;;;;;21.90;68.90;;;;;;5073911;28;19919;-70
2021/11/15 00:55:01;;;;;;;;;;;21.90;69.00;;;;;;5072664;28;19909;-69
2021/11/15 00:57:27;;;;;;;;;;;22.10;68.10;;;;;;5072346;28;19908;-70
2021/11/15 00:59:54;;;;;;;;;;;22.00;67.10;;;;;;5117640;22;19925;-70
2021/11/15 01:02:22;;;;;;;;;;;21.70;67.60;;;;;;5072846;28;19917;-69
2021/11/15 01:04:49;;;;;;;;;;;21.80;69.60;;;;;;5072731;28;19916;-70
2021/11/15 01:07:19;;;;;;;;;;;22.20;68.10;;;;;;5131251;22;20285;-70
2021/11/15 01:09:46;;;;;;;;;;;22.60;67.20;;;;;;5092664;28;19978;-71
2021/11/15 01:12:12;;;;;;;;;;;22.20;66.40;;;;;;5092364;28;19989;-70
2021/11/15 01:14:39;;;;;;;;;;;22.30;68.20;;;;;;5092652;28;20354;-71
2021/11/15 01:17:06;;;;;;;;;;;22.20;66.80;;;;;;5092378;28;20366;-70
2021/11/15 01:19:32;;;;;;;;;;;22.60;66.70;;;;;;5092332;28;19934;-66
2021/11/15 01:21:59;;;;;;;;;;;23.30;66.90;;;;;;5091998;28;19948;-66
2021/11/15 01:24:26;;;;;;;;;;;23.30;66.10;;;;;;5092545;28;19976;-66
2021/11/15 01:26:53;;;;;;;;;;;22.70;66.20;;;;;;5092129;28;19913;-66
2021/11/15 01:29:20;;;;;;;;;;;23.20;67.40;;;;;;5092560;28;19927;-66
2021/11/15 01:31:47;;;;;;;;;;;23.20;65.10;;;;;;5092137;28;19912;-67
2021/11/15 01:34:13;;;;;;;;;;;23.20;65.50;;;;;;5092728;28;19965;-68
2021/11/15 01:36:41;;;;;;;;;;;22.70;65.30;;;;;;5092718;28;19916;-68
2021/11/15 01:39:08;;;;;;;;;;;21.90;65.60;;;;;;5092507;28;19908;-66
2021/11/15 01:41:34;;;;;;;;;;;21.60;67.80;;;;;;5091577;28;19908;-66
2021/11/15 01:44:01;;;;;;;;;;;21.30;68.30;;;;;;5091996;28;20033;-67
2021/11/15 01:46:28;;;;;;;;;;;21.20;68.20;;;;;;5092348;28;19912;-66
2021/11/15 01:48:55;;;;;;;;;;;21.30;70.30;;;;;;5091471;28;19961;-69
2021/11/15 01:51:21;;;;;;;;;;;21.50;69.40;;;;;;5092295;28;20424;-67
2021/11/15 01:53:48;;;;;;;;;;;21.40;66.90;;;;;;5092157;28;20000;-71
2021/11/15 01:56:15;;;;;;;;;;;21.40;67.50;;;;;;5091853;28;19916;-67
2021/11/15 01:58:42;;;;;;;;;;;21.30;68.10;;;;;;5540100;22;19969;-70
2021/11/15 02:01:09;;;;;;;;;;;21.40;67.60;;;;;;5080710;28;20266;-69
2021/11/15 02:03:35;;;;;;;;;;;21.20;67.80;;;;;;5072058;28;20324;-70
2021/11/15 02:06:03;;;;;;;;;;;21.10;67.10;;;;;;5071973;28;19915;-71
2021/11/15 02:08:30;;;;;;;;;;;21.10;68.30;;;;;;5071894;28;19923;-70
2021/11/15 02:10:57;;;;;;;;;;;21.10;69.50;;;;;;5072313;28;19912;-69
2021/11/15 02:13:24;;;;;;;;;;;21.20;69.00;;;;;;5071837;28;19940;-70
2021/11/15 02:15:51;;;;;;;;;;;21.40;69.20;;;;;;5071745;28;19991;-69
2021/11/15 02:18:18;;;;;;;;;;;21.60;68.40;;;;;;5071752;28;19913;-71
2021/11/15 02:20:56;;;;;;;;;;;21.70;68.90;;;;;;5071721;28;19909;-70
2021/11/15 02:23:24;;;;;;;;;;;21.80;69.00;;;;;;5071918;28;19909;-71
2021/11/15 02:25:52;;;;;;;;;;;21.60;67.40;;;;;;5071333;28;20396;-70
2021/11/15 02:28:24;;;;;;;;;;;21.70;69.30;;;;;;5071572;28;19993;-71
2021/11/15 02:30:51;;;;;;;;;;;21.50;67.30;;;;;;5071683;28;19909;-70
2021/11/15 02:33:17;;;;;;;;;;;21.60;68.90;;;;;;5071766;28;20410;-71
2021/11/15 02:35:44;;;;;;;;;;;21.70;67.20;;;;;;5071647;28;20043;-71
2021/11/15 02:38:11;;;;;;;;;;;21.60;68.60;;;;;;5071840;28;20366;-71
2021/11/15 02:40:38;;;;;;;;;;;21.60;69.30;;;;;;5071696;28;19971;-71
2021/11/15 02:43:05;;;;;;;;;;;21.70;68.60;;;;;;5071420;28;19991;-70
2021/11/15 02:45:32;;;;;;;;;;;21.80;68.40;;;;;;5071912;28;20420;-68
2021/11/15 02:47:59;;;;;;;;;;;21.70;68.90;;;;;;5071081;28;19924;-71
2021/11/15 02:50:27;;;;;;;;;;;21.60;70.50;;;;;;5071422;28;20204;-70
2021/11/15 02:52:55;;;;;;;;;;;21.50;69.10;;;;;;5072607;28;19908;-71
2021/11/15 02:55:23;;;;;;;;;;;21.30;69.60;;;;;;5075111;28;19913;-71
2021/11/15 02:57:50;;;;;;;;;;;21.50;70.80;;;;;;5074669;28;19908;-71
2021/11/15 03:00:17;;;;;;;;;;;21.50;69.20;;;;;;5074756;28;20007;-71
2021/11/15 03:02:44;;;;;;;;;;;21.30;70.80;;;;;;5075005;28;19930;-69
2021/11/15 03:05:10;;;;;;;;;;;21.20;69.60;;;;;;5074988;28;19916;-69
2021/11/15 03:07:37;;;;;;;;;;;21.10;70.50;;;;;;5074945;28;20028;-71
2021/11/15 03:10:04;;;;;;;;;;;21.10;72.60;;;;;;5074877;28;19908;-69
2021/11/15 03:12:32;;;;;;;;;;;21.30;71.70;;;;;;5074760;28;20259;-71
2021/11/15 03:14:58;;;;;;;;;;;21.30;70.20;;;;;;5074738;28;20314;-71
2021/11/15 03:17:25;;;;;;;;;;;21.30;71.30;;;;;;5074537;28;19999;-70
2021/11/15 03:19:52;;;;;;;;;;;21.30;71.30;;;;;;5074444;28;19908;-71
2021/11/15 03:22:18;;;;;;;;;;;21.30;72.10;;;;;;5074821;28;19908;-72
2021/11/15 03:24:45;;;;;;;;;;;21.30;72.30;;;;;;5074750;28;20278;-71
2021/11/15 03:27:12;;;;;;;;;;;21.30;71.20;;;;;;5074612;28;19917;-71
2021/11/15 03:29:38;;;;;;;;;;;21.30;71.00;;;;;;5074554;28;19916;-71
2021/11/15 03:32:06;;;;;;;;;;;21.30;71.80;;;;;;5074312;28;20350;-71
2021/11/15 03:34:33;;;;;;;;;;;21.30;71.20;;;;;;5074320;28;19962;-71
2021/11/15 03:37:00;;;;;;;;;;;21.10;72.00;;;;;;5074432;28;19908;-72
2021/11/15 03:39:26;;;;;;;;;;;21.30;71.30;;;;;;5074299;28;19913;-71
2021/11/15 03:41:53;;;;;;;;;;;21.30;71.30;;;;;;5074268;28;19924;-71
2021/11/15 03:44:20;;;;;;;;;;;21.30;72.00;;;;;;5073917;28;19908;-72
2021/11/15 03:46:46;;;;;;;;;;;21.40;71.00;;;;;;5074187;28;19920;-72
2021/11/15 03:49:15;;;;;;;;;;;21.40;70.00;;;;;;5074139;28;19943;-71
2021/11/15 03:51:42;;;;;;;;;;;21.40;70.40;;;;;;5074057;28;19915;-71
2021/11/15 03:54:09;;;;;;;;;;;21.20;71.40;;;;;;5073729;28;19916;-70
2021/11/15 03:56:36;;;;;;;;;;;21.10;70.60;;;;;;5073973;28;20070;-72
2021/11/15 03:59:06;;;;;;;;;;;21.00;72.40;;;;;;5073658;28;20370;-71
2021/11/15 04:01:33;;;;;;;;;;;21.10;70.90;;;;;;5073735;28;19954;-72
2021/11/15 04:04:03;;;;;;;;;;;21.20;70.80;;;;;;5073043;28;19909;-72
2021/11/15 04:06:33;;;;;;;;;;;21.30;71.80;;;;;;5073538;28;19917;-71
2021/11/15 04:09:01;;;;;;;;;;;21.30;71.00;;;;;;5073616;28;19908;-72
2021/11/15 04:11:29;;;;;;;;;;;21.20;71.80;;;;;;5073681;28;20354;-70
2021/11/15 04:14:02;;;;;;;;;;;21.10;71.80;;;;;;5073224;28;19916;-71
2021/11/15 04:16:29;;;;;;;;;;;21.00;71.30;;;;;;5073436;28;19991;-71
2021/11/15 04:18:58;;;;;;;;;;;20.80;72.40;;;;;;5073508;28;19909;-71
2021/11/15 04:21:25;;;;;;;;;;;20.70;73.80;;;;;;5073362;28;19962;-71
2021/11/15 04:23:52;;;;;;;;;;;20.70;73.30;;;;;;5073286;28;19947;-71
2021/11/15 04:26:18;;;;;;;;;;;20.60;72.60;;;;;;5073499;28;19909;-71
2021/11/15 04:28:45;;;;;;;;;;;20.60;74.00;;;;;;5073079;28;19954;-68
2021/11/15 04:31:12;;;;;;;;;;;20.80;73.50;;;;;;5073245;28;19982;-72
2021/11/15 04:33:38;;;;;;;;;;;21.00;74.50;;;;;;5073150;28;19930;-71
2021/11/15 04:36:05;;;;;;;;;;;21.20;73.60;;;;;;5072881;28;19916;-72
2021/11/15 04:38:32;;;;;;;;;;;21.30;71.60;;;;;;5073076;28;19912;-71
2021/11/15 04:40:58;;;;;;;;;;;21.20;72.70;;;;;;5073175;28;20022;-72
2021/11/15 04:43:25;;;;;;;;;;;21.10;72.60;;;;;;5073129;28;19913;-70
2021/11/15 04:45:52;;;;;;;;;;;21.10;72.30;;;;;;5073058;28;19916;-72
2021/11/15 04:48:18;;;;;;;;;;;21.10;72.30;;;;;;5072924;28;19916;-71
2021/11/15 04:50:45;;;;;;;;;;;20.90;73.10;;;;;;5072955;28;20003;-71
2021/11/15 04:53:12;;;;;;;;;;;20.90;73.50;;;;;;5072890;28;20312;-72
2021/11/15 04:55:39;;;;;;;;;;;21.00;72.80;;;;;;5072785;28;20384;-72
2021/11/15 04:58:06;;;;;;;;;;;21.00;72.80;;;;;;5072259;28;19913;-72
2021/11/15 05:00:33;;;;;;;;;;;21.00;72.70;;;;;;5072777;28;20262;-71
2021/11/15 05:03:00;;;;;;;;;;;21.10;72.90;;;;;;5072705;28;20334;-72
2021/11/15 05:05:27;;;;;;;;;;;21.20;72.30;;;;;;5072890;28;19909;-72
2021/11/15 05:07:54;;;;;;;;;;;21.10;72.80;;;;;;5072084;28;19969;-73
2021/11/15 05:10:22;;;;;;;;;;;21.10;73.30;;;;;;5072484;28;19935;-72
2021/11/15 05:12:49;;;;;;;;;;;21.10;72.40;;;;;;5072438;28;19915;-72
2021/11/15 05:15:19;;;;;;;;;;;21.10;73.10;;;;;;5072286;28;19963;-71
2021/11/15 05:17:50;;;;;;;;;;;20.90;72.40;;;;;;5072728;28;19920;-72
2021/11/15 05:20:17;;;;;;;;;;;20.70;73.50;;;;;;5072497;28;20055;-72
2021/11/15 05:22:44;;;;;;;;;;;20.70;73.60;;;;;;5072594;28;19909;-72
2021/11/15 05:25:11;;;;;;;;;;;20.80;73.90;;;;;;5072440;28;19999;-71
2021/11/15 05:27:38;;;;;;;;;;;20.70;74.40;;;;;;5072348;28;19916;-73
2021/11/15 05:30:05;;;;;;;;;;;20.60;73.70;;;;;;5072265;28;19908;-72
2021/11/15 05:32:32;;;;;;;;;;;20.60;75.30;;;;;;5072744;28;19912;-73
2021/11/15 05:34:58;;;;;;;;;;;20.50;74.10;;;;;;5072255;28;19912;-72
2021/11/15 05:37:25;;;;;;;;;;;20.50;74.70;;;;;;5072145;28;19995;-70
2021/11/15 05:39:52;;;;;;;;;;;20.60;74.00;;;;;;5072135;28;19916;-71
2021/11/15 05:42:18;;;;;;;;;;;20.50;75.90;;;;;;5072165;28;19987;-71
2021/11/15 05:44:45;;;;;;;;;;;20.50;75.20;;;;;;5072424;28;19909;-72
2021/11/15 05:47:12;;;;;;;;;;;20.50;75.70;;;;;;5072356;28;19916;-69
2021/11/15 05:49:38;;;;;;;;;;;20.50;74.60;;;;;;5072297;28;19908;-72
2021/11/15 05:52:05;;;;;;;;;;;20.50;74.90;;;;;;5069920;28;20290;-72
2021/11/15 05:54:32;;;;;;;;;;;20.50;74.70;;;;;;5070278;28;19912;-68
2021/11/15 05:56:59;;;;;;;;;;;20.40;75.20;;;;;;5070056;28;20290;-72
2021/11/15 05:59:27;;;;;;;;;;;20.50;74.90;;;;;;5070121;28;20297;-72
2021/11/15 06:01:54;;;;;;;;;;;20.50;74.00;;;;;;5069875;28;20007;-67
2021/11/15 06:04:21;;;;;;;;;;;20.40;74.70;;;;;;5069634;28;19919;-72
2021/11/15 06:06:49;;;;;;;;;;;20.40;75.70;;;;;;5068443;28;19927;-70
2021/11/15 06:09:16;;;;;;;;;;;20.40;76.00;;;;;;5070088;28;19919;-72
2021/11/15 06:11:43;;;;;;;;;;;20.30;75.80;;;;;;5069665;28;19993;-69
2021/11/15 06:14:09;;;;;;;;;;;20.10;76.10;;;;;;5069506;28;19912;-72
2021/11/15 06:16:36;;;;;;;;;;;20.10;75.20;;;;;;5069921;28;20409;-72
2021/11/15 06:19:02;;;;;;;;;;;20.00;75.50;;;;;;5069719;28;19928;-70
2021/11/15 06:21:29;;;;;;;;;;;20.00;75.70;;;;;;5069983;28;19913;-72
2021/11/15 06:23:56;;;;;;;;;;;20.00;75.60;;;;;;5085220;28;19908;-71
2021/11/15 06:26:22;;;;;;;;;;;20.00;75.10;;;;;;5069724;28;19908;-72
2021/11/15 06:28:49;;;;;;;;;;;20.00;75.00;;;;;;5072483;28;20087;-71
2021/11/15 06:31:16;;;;;;;;;;;20.00;75.10;;;;;;5073486;28;19909;-68
2021/11/15 06:33:49;;;;;;;;;;;20.10;74.50;;;;;;5073334;28;20354;-72
2021/11/15 06:36:22;;;;;;;;;;;20.00;74.40;;;;;;5073774;28;20277;-71
2021/11/15 06:38:49;;;;;;;;;;;20.00;74.90;;;;;;5072126;28;19918;-71
2021/11/15 06:41:16;;;;;;;;;;;20.00;75.70;;;;;;5072796;28;19948;-68
2021/11/15 06:43:42;;;;;;;;;;;20.00;76.00;;;;;;5073603;28;19916;-71
2021/11/15 06:46:09;;;;;;;;;;;19.90;75.50;;;;;;5072704;28;19912;-71
2021/11/15 06:48:41;;;;;;;;;;;19.80;76.20;;;;;;5073136;28;19956;-72
2021/11/15 06:51:11;;;;;;;;;;;19.80;76.20;;;;;;5073178;28;19912;-71
2021/11/15 06:53:40;;;;;;;;;;;19.70;75.10;;;;;;5073304;28;19909;-70
2021/11/15 06:56:07;;;;;;;;;;;19.70;75.50;;;;;;5073121;28;19924;-71
2021/11/15 06:58:34;;;;;;;;;;;19.60;75.10;;;;;;5072715;28;19924;-71
2021/11/15 07:01:01;;;;;;;;;;;19.50;76.00;;;;;;5073220;28;19912;-72
2021/11/15 07:03:28;;;;;;;;;;;19.60;77.00;;;;;;5073245;28;19919;-73
2021/11/15 07:05:54;;;;;;;;;;;19.60;76.40;;;;;;5072561;28;20693;-72
2021/11/15 07:08:21;;;;;;;;;;;19.60;76.40;;;;;;5073084;28;19917;-71
2021/11/15 07:10:48;;;;;;;;;;;19.50;75.40;;;;;;5072679;28;19915;-72
2021/11/15 07:13:15;;;;;;;;;;;19.40;77.50;;;;;;5072839;28;19908;-72
2021/11/15 07:15:42;;;;;;;;;;;19.40;75.90;;;;;;5072903;28;19991;-70
2021/11/15 07:18:12;;;;;;;;;;;19.30;77.10;;;;;;5072822;28;19915;-71
2021/11/15 07:20:39;;;;;;;;;;;19.20;76.10;;;;;;5073145;28;19931;-70
2021/11/15 07:23:06;;;;;;;;;;;19.20;77.80;;;;;;5073133;28;19962;-70
2021/11/15 07:25:33;;;;;;;;;;;19.30;77.10;;;;;;5072414;28;19963;-70
2021/11/15 07:27:59;;;;;;;;;;;19.30;77.80;;;;;;5072065;28;20640;-68
2021/11/15 07:30:26;;;;;;;;;;;19.20;76.10;;;;;;5072604;28;19916;-71
2021/11/15 07:32:53;;;;;;;;;;;19.10;77.30;;;;;;5072824;28;19916;-72
2021/11/15 07:35:22;;;;;;;;;;;19.00;76.90;;;;;;5072621;28;19920;-72
2021/11/15 07:37:49;;;;;;;;;;;19.00;77.90;;;;;;5071943;28;19916;-69
2021/11/15 07:40:17;;;;;;;;;;;18.90;78.60;;;;;;5071383;28;20004;-68
2021/11/15 07:42:44;;;;;;;;;;;18.90;76.90;;;;;;5072246;28;19919;-71
2021/11/15 07:45:11;;;;;;;;;;;18.80;77.40;;;;;;5072271;28;20274;-69
2021/11/15 07:47:40;;;;;;;;;;;18.80;77.20;;;;;;5072280;28;19921;-71
2021/11/15 07:50:07;;;;;;;;;;;18.70;76.80;;;;;;5071935;28;19917;-70
2021/11/15 07:52:35;;;;;;;;;;;18.70;77.20;;;;;;5072373;28;19987;-71
2021/11/15 07:55:03;;;;;;;;;;;18.70;78.70;;;;;;5072071;28;19912;-71
2021/11/15 07:57:30;;;;;;;;;;;18.80;78.10;;;;;;5071835;28;19916;-66
2021/11/15 07:59:57;;;;;;;;;;;18.80;77.10;;;;;;5072028;28;19930;-70
2021/11/15 08:02:23;;;;;;;;;;;18.70;77.90;;;;;;5072135;28;20400;-71
2021/11/15 08:04:50;;;;;;;;;;;18.70;77.90;;;;;;5071736;28;19961;-70
2021/11/15 08:07:17;;;;;;;;;;;18.70;78.90;;;;;;5073779;28;19920;-66
2021/11/15 08:09:44;;;;;;;;;;;18.60;78.20;;;;;;5073771;28;19908;-70
2021/11/15 08:12:11;;;;;;;;;;;18.60;78.70;;;;;;5073538;28;19915;-66
2021/11/15 08:14:42;;;;;;;;;;;18.60;78.20;;;;;;5073799;28;19908;-67
2021/11/15 08:17:10;;;;;;;;;;;18.50;79.10;;;;;;5073650;28;19947;-67
2021/11/15 08:19:37;;;;;;;;;;;18.40;77.90;;;;;;5073627;28;19915;-70
2021/11/15 08:22:04;;;;;;;;;;;18.40;79.50;;;;;;5073680;28;19909;-69
2021/11/15 08:24:49;;;;;;;;;;;18.40;78.60;;;;;;5073946;28;19908;-70
2021/11/15 08:27:15;;;;;;;;;;;18.30;78.40;;;;;;5073159;28;19916;-67
2021/11/15 08:29:43;;;;;;;;;;;18.30;78.80;;;;;;5073422;28;19909;-70
2021/11/15 08:32:10;;;;;;;;;;;18.20;79.00;;;;;;5073188;28;19909;-68
2021/11/15 08:34:37;;;;;;;;;;;18.20;80.00;;;;;;5073244;28;19943;-68
2021/11/15 08:37:05;;;;;;;;;;;18.10;79.20;;;;;;5073370;28;19915;-70
2021/11/15 08:39:32;;;;;;;;;;;18.10;79.50;;;;;;5073332;28;20285;-69
2021/11/15 08:42:06;;;;;;;;;;;18.10;79.50;;;;;;5072892;28;19909;-70
2021/11/15 08:44:43;;;;;;;;;;;18.10;78.70;;;;;;5073017;28;19908;-70
2021/11/15 08:47:09;;;;;;;;;;;18.00;79.00;;;;;;5073070;28;19920;-68
2021/11/15 08:49:36;;;;;;;;;;;18.00;79.50;;;;;;5073226;28;20389;-68
2021/11/15 08:52:04;;;;;;;;;;;18.00;78.80;;;;;;5072584;28;19913;-70
2021/11/15 08:54:31;;;;;;;;;;;17.90;79.80;;;;;;5073172;28;19913;-67
2021/11/15 08:56:58;;;;;;;;;;;17.80;79.10;;;;;;5072949;28;19908;-69
2021/11/15 08:59:25;;;;;;;;;;;17.90;79.50;;;;;;5071169;28;19999;-66
2021/11/15 09:01:51;;;;;;;;;;;17.80;80.80;;;;;;5072289;28;19909;-70
2021/11/15 09:04:18;;;;;;;;;;;17.80;80.90;;;;;;5072331;28;20013;-70
2021/11/15 09:06:45;;;;;;;;;;;17.80;79.50;;;;;;5072418;28;19940;-71
2021/11/15 09:09:15;;;;;;;;;;;17.70;79.50;;;;;;5072883;28;19915;-71
2021/11/15 09:11:48;;;;;;;;;;;17.70;79.50;;;;;;5072670;28;20003;-70
2021/11/15 09:14:15;;;;;;;;;;;17.70;80.20;;;;;;5068848;28;19913;-68
2021/11/15 09:16:42;;;;;;;;;;;17.80;80.10;;;;;;5070901;28;20003;-70
2021/11/15 09:19:10;;;;;;;;;;;17.70;79.60;;;;;;5070398;28;19915;-68
2021/11/15 09:21:37;;;;;;;;;;;17.70;80.70;;;;;;5070667;28;19912;-69
2021/11/15 09:24:04;;;;;;;;;;;17.80;81.70;;;;;;5080923;28;20596;-70
2021/11/15 09:26:31;;;;;;;;;;;17.80;79.90;;;;;;5070389;28;19908;-70
2021/11/15 09:29:01;;;;;;;;;;;17.80;80.60;;;;;;5070847;28;19909;-69
2021/11/15 09:31:28;;;;;;;;;;;17.80;79.40;;;;;;5070502;28;19999;-70
2021/11/15 09:33:55;;;;;;;;;;;17.80;80.70;;;;;;5069614;28;19914;-70
2021/11/15 09:36:24;;;;;;;;;;;17.80;80.90;;;;;;5070144;28;19939;-69
2021/11/15 09:38:52;;;;;;;;;;;17.70;80.10;;;;;;5070549;28;19912;-70
2021/11/15 09:41:19;;;;;;;;;;;17.70;79.50;;;;;;5070179;28;20388;-68
2021/11/15 09:43:46;;;;;;;;;;;17.60;82.10;;;;;;5070600;28;20007;-71
2021/11/15 09:46:14;;;;;;;;;;;17.60;79.10;;;;;;5069981;28;19934;-71
2021/11/15 09:48:43;;;;;;;;;;;17.50;79.60;;;;;;5069145;28;19917;-71
2021/11/15 09:51:10;;;;;;;;;;;17.50;81.10;;;;;;5070212;28;19913;-70
2021/11/15 09:53:37;;;;;;;;;;;17.40;80.30;;;;;;5069934;28;20351;-69
2021/11/15 09:56:05;;;;;;;;;;;17.50;79.70;;;;;;5070137;28;19909;-71
2021/11/15 09:58:32;;;;;;;;;;;17.50;80.30;;;;;;5070185;28;20695;-71
2021/11/15 10:00:59;;;;;;;;;;;17.40;80.00;;;;;;5074479;28;19940;-70
2021/11/15 10:03:26;;;;;;;;;;;17.40;81.40;;;;;;5071820;28;19908;-65
2021/11/15 10:05:53;;;;;;;;;;;17.40;80.20;;;;;;5074403;28;19961;-65
2021/11/15 10:08:20;;;;;;;;;;;17.30;80.30;;;;;;5074405;28;19920;-65
2021/11/15 10:10:57;;;;;;;;;;;17.20;81.10;;;;;;5074598;28;20277;-66
2021/11/15 10:13:23;;;;;;;;;;;17.30;80.60;;;;;;5074297;28;19908;-69
2021/11/15 10:15:55;;;;;;;;;;;17.20;80.90;;;;;;5073871;28;19908;-65
2021/11/15 10:18:29;;;;;;;;;;;17.30;80.90;;;;;;5073567;28;20442;-64
2021/11/15 10:20:56;;;;;;;;;;;17.20;81.60;;;;;;5073883;28;20024;-66
2021/11/15 10:23:30;;;;;;;;;;;17.20;81.90;;;;;;5074546;28;19935;-66
2021/11/15 10:26:02;;;;;;;;;;;17.20;81.80;;;;;;5073371;28;19965;-65
2021/11/15 10:28:31;;;;;;;;;;;17.20;81.60;;;;;;5073461;28;19971;-64
2021/11/15 10:30:58;;;;;;;;;;;17.20;81.70;;;;;;5073445;28;19919;-65
2021/11/15 10:33:39;;;;;;;;;;;17.20;81.50;;;;;;5073263;28;20448;-66
2021/11/15 10:36:05;;;;;;;;;;;17.10;82.30;;;;;;5073512;28;19908;-65
2021/11/15 10:38:43;;;;;;;;;;;17.10;83.20;;;;;;5073582;28;19919;-65
2021/11/15 10:41:20;;;;;;;;;;;17.10;82.10;;;;;;5073493;28;19916;-66
2021/11/15 10:43:55;;;;;;;;;;;17.10;82.90;;;;;;5073159;28;20281;-66
2021/11/15 10:46:29;;;;;;;;;;;17.10;82.40;;;;;;5073588;28;19954;-65
2021/11/15 10:48:56;;;;;;;;;;;17.10;83.00;;;;;;5073142;28;19923;-65
2021/11/15 10:51:45;;;;;;;;;;;17.00;83.10;;;;;;5073204;28;20350;-65
2021/11/15 10:54:32;;;;;;;;;;;17.00;82.20;;;;;;5073068;28;19909;-64
2021/11/15 10:57:15;;;;;;;;;;;17.00;82.90;;;;;;5073209;28;19908;-65
2021/11/15 10:59:41;;;;;;;;;;;17.00;82.90;;;;;;5073157;28;19920;-64
2021/11/15 11:02:28;;;;;;;;;;;16.90;82.80;;;;;;5072369;28;20276;-64
2021/11/15 11:05:11;;;;;;;;;;;16.90;83.90;;;;;;5072933;28;20460;-65
2021/11/15 11:07:42;;;;;;;;;;;16.80;83.00;;;;;;5072634;28;19924;-66
2021/11/15 11:10:15;;;;;;;;;;;16.80;83.20;;;;;;5072603;28;19909;-65
2021/11/15 11:12:53;;;;;;;;;;;16.80;83.50;;;;;;5073320;28;20303;-65
2021/11/15 11:15:43;;;;;;;;;;;16.80;83.80;;;;;;5072739;28;20331;-65
2021/11/15 11:18:19;;;;;;;;;;;16.80;84.20;;;;;;5072426;28;19958;-67
2021/11/15 11:25:55;;;;;;;;;;;16.80;84.10;;;;;;5072696;28;20309;-65
2021/11/15 11:28:29;;;;;;;;;;;16.90;84.60;;;;;;5072596;28;19916;-65
2021/11/15 11:30:56;;;;;;;;;;;16.80;83.80;;;;;;5072615;28;19912;-65
2021/11/15 11:33:24;;;;;;;;;;;16.90;85.10;;;;;;5071629;28;19916;-65
2021/11/15 11:35:52;;;;;;;;;;;16.90;85.10;;;;;;5072262;28;19909;-65
2021/11/15 11:38:20;;;;;;;;;;;17.00;85.00;;;;;;5072550;28;19920;-67
2021/11/15 11:40:47;;;;;;;;;;;17.00;84.20;;;;;;5072495;28;19917;-64
2021/11/15 11:43:17;;;;;;;;;;;17.00;84.20;;;;;;5072383;28;19912;-65
2021/11/15 11:45:44;;;;;;;;;;;16.90;84.20;;;;;;5071946;28;20475;-67
2021/11/15 11:48:12;;;;;;;;;;;16.90;84.50;;;;;;5071743;28;19920;-65
2021/11/15 11:50:39;;;;;;;;;;;16.90;85.00;;;;;;5072496;28;20465;-66
2021/11/15 11:53:07;;;;;;;;;;;17.00;85.70;;;;;;5086980;28;20561;-65
2021/11/15 11:55:34;;;;;;;;;;;17.00;84.70;;;;;;5071720;28;20012;-65
2021/11/15 11:58:19;;;;;;;;;;;17.10;85.20;;;;;;5071695;28;20571;-64
2021/11/15 12:00:47;;;;;;;;;;;17.10;84.70;;;;;;5071257;28;19974;-66
2021/11/15 12:03:14;;;;;;;;;;;17.10;85.00;;;;;;5071544;28;19919;-66
2021/11/15 12:05:41;;;;;;;;;;;17.10;85.10;;;;;;5071868;28;19913;-65
2021/11/15 12:08:09;;;;;;;;;;;17.10;85.00;;;;;;5071599;28;20015;-65
2021/11/15 12:10:43;;;;;;;;;;;17.10;85.70;;;;;;5071551;28;19913;-65
2021/11/15 12:13:11;;;;;;;;;;;17.10;84.90;;;;;;5071441;28;19920;-66
2021/11/15 12:15:38;;;;;;;;;;;17.10;84.90;;;;;;5071905;28;19934;-66
2021/11/15 12:18:10;;;;;;;;;;;17.10;86.50;;;;;;5070895;28;20397;-67
2021/11/15 12:20:55;;;;;;;;;;;17.00;84.80;;;;;;5071730;28;19912;-65
2021/11/15 12:23:21;;;;;;;;;;;17.00;85.20;;;;;;5057565;28;19977;-66
2021/11/15 12:26:02;;;;;;;;;;;17.00;85.30;;;;;;5070301;28;20255;-69
2021/11/15 12:28:29;;;;;;;;;;;17.00;85.10;;;;;;5071612;28;19916;-66
2021/11/15 12:30:58;;;;;;;;;;;16.90;85.30;;;;;;5071546;28;19913;-66
2021/11/15 12:33:29;;;;;;;;;;;16.80;85.60;;;;;;5071481;28;19931;-65
2021/11/15 12:36:02;;;;;;;;;;;16.80;86.00;;;;;;5071441;28;19908;-65
2021/11/15 12:38:39;;;;;;;;;;;16.80;86.40;;;;;;5071057;28;19954;-65
2021/11/15 12:41:39;;;;;;;;;;;16.70;88.50;;;;;;5071055;28;19916;-65
2021/11/15 12:44:09;;;;;;;;;;;16.40;90.50;;;;;;5070658;28;20380;-65
2021/11/15 12:46:54;;;;;;;;;;;16.00;92.80;;;;;;5071059;28;19919;-65
2021/11/15 12:49:28;;;;;;;;;;;15.70;92.70;;;;;;5071145;28;19912;-65
2021/11/15 12:52:14;;;;;;;;;;;15.60;93.10;;;;;;5070582;28;19999;-65
2021/11/15 12:54:41;;;;;;;;;;;15.70;92.80;;;;;;5071029;28;20374;-69
2021/11/15 12:57:27;;;;;;;;;;;15.80;91.70;;;;;;5071061;28;19915;-64
2021/11/15 13:00:02;;;;;;;;;;;16.00;90.80;;;;;;5070815;28;19925;-66
2021/11/15 13:02:32;;;;;;;;;;;16.10;90.60;;;;;;5070966;28;19909;-65
2021/11/15 13:04:59;;;;;;;;;;;16.20;90.50;;;;;;5070780;28;19962;-65
2021/11/15 13:07:26;;;;;;;;;;;16.20;90.30;;;;;;5070826;28;19917;-64
2021/11/15 13:09:57;;;;;;;;;;;16.40;90.40;;;;;;5070740;28;19909;-65
2021/11/15 13:12:26;;;;;;;;;;;16.40;89.60;;;;;;5071041;28;19916;-65
2021/11/15 13:14:52;;;;;;;;;;;16.40;90.10;;;;;;5071016;28;20340;-65
2021/11/15 13:17:21;;;;;;;;;;;16.50;90.00;;;;;;5070652;28;19920;-66
2021/11/15 13:19:49;;;;;;;;;;;16.40;89.60;;;;;;5070603;28;19970;-66
2021/11/15 13:22:17;;;;;;;;;;;16.40;90.00;;;;;;5070840;28;19955;-66
2021/11/15 13:24:45;;;;;;;;;;;16.40;90.00;;;;;;5070032;28;20380;-68
2021/11/15 13:27:12;;;;;;;;;;;16.40;90.20;;;;;;5070645;28;19924;-65
2021/11/15 13:29:39;;;;;;;;;;;16.50;90.30;;;;;;5070723;28;19908;-66
2021/11/15 13:32:07;;;;;;;;;;;16.50;90.90;;;;;;5070119;28;20007;-65
2021/11/15 13:34:33;;;;;;;;;;;16.40;90.40;;;;;;5070495;28;19916;-66
2021/11/15 13:37:00;;;;;;;;;;;16.50;90.30;;;;;;5069784;28;19959;-67
2021/11/15 13:39:27;;;;;;;;;;;16.50;90.40;;;;;;5070509;28;19912;-66
2021/11/15 13:41:54;;;;;;;;;;;16.50;90.80;;;;;;5070470;28;19930;-66
2021/11/15 13:44:20;;;;;;;;;;;16.50;90.30;;;;;;5071319;28;20435;-69
2021/11/15 13:46:47;;;;;;;;;;;16.50;90.20;;;;;;5072470;28;19916;-71
2021/11/15 13:49:14;;;;;;;;;;;16.50;90.50;;;;;;5072363;28;19908;-69
2021/11/15 13:51:40;;;;;;;;;;;16.60;90.30;;;;;;5072437;28;19920;-69
2021/11/15 13:54:07;;;;;;;;;;;16.60;90.40;;;;;;5072015;28;19973;-70
2021/11/15 13:56:34;;;;;;;;;;;16.50;90.40;;;;;;5072445;28;19912;-71
2021/11/15 13:59:00;;;;;;;;;;;16.50;90.80;;;;;;5072322;28;20278;-69
2021/11/15 14:01:27;;;;;;;;;;;16.40;90.40;;;;;;5072363;28;19913;-67
2021/11/15 14:03:53;;;;;;;;;;;16.50;90.50;;;;;;5071991;28;19912;-69
2021/11/15 14:06:20;;;;;;;;;;;16.50;90.60;;;;;;5072147;28;19909;-71
2021/11/15 14:08:47;;;;;;;;;;;16.40;90.70;;;;;;5071921;28;19926;-68
2021/11/15 14:11:13;;;;;;;;;;;16.40;90.70;;;;;;5072329;28;19970;-69
2021/11/15 14:13:40;;;;;;;;;;;16.40;90.80;;;;;;5072252;28;19909;-67
2021/11/15 14:16:07;;;;;;;;;;;16.30;90.80;;;;;;5071849;28;19954;-67
2021/11/15 14:18:34;;;;;;;;;;;16.30;91.00;;;;;;5072222;28;19912;-68
2021/11/15 14:21:01;;;;;;;;;;;16.40;91.40;;;;;;5072423;28;19996;-67
2021/11/15 14:23:27;;;;;;;;;;;16.50;91.50;;;;;;5072041;28;19918;-70
2021/11/15 14:25:54;;;;;;;;;;;16.50;91.40;;;;;;5071675;28;19943;-68
2021/11/15 14:28:22;;;;;;;;;;;16.50;91.80;;;;;;5071930;28;19917;-70